createdAt,value
2019-03-24T00:00:59.210Z,62.30
2019-03-24T00:03:28.441Z,62.10
2019-03-24T00:05:57.333Z,61.90
2019-03-24T00:08:26.141Z,61.70
2019-03-24T00:10:55.252Z,62.20
2019-03-24T00:13:25.014Z,62.20
2019-03-24T00:15:54.145Z,62.20
2019-03-24T00:18:22.975Z,62.40
2019-03-24T00:20:52.060Z,62.50
2019-03-24T00:23:21.200Z,63.00
2019-03-24T00:25:50.016Z,63.10
2019-03-24T00:28:18.819Z,63.20
2019-03-24T00:30:47.907Z,63.00
2019-03-24T00:33:17.064Z,63.10
2019-03-24T00:35:45.864Z,63.00
2019-03-24T00:38:14.756Z,63.60
2019-03-24T00:40:43.534Z,63.80
2019-03-24T00:43:12.633Z,64.10
2019-03-24T00:45:42.856Z,64.20
2019-03-24T00:48:11.850Z,63.90
2019-03-24T00:50:41.046Z,64.20
2019-03-24T00:53:09.867Z,64.60
2019-03-24T00:55:38.687Z,64.80
2019-03-24T00:58:07.447Z,64.70
2019-03-24T01:00:44.356Z,65.20
2019-03-24T01:03:13.187Z,65.60
2019-03-24T01:05:42.012Z,65.70
2019-03-24T01:08:10.849Z,65.70
2019-03-24T01:10:39.645Z,66.10
2019-03-24T01:13:08.433Z,65.50
2019-03-24T01:15:47.279Z,65.50
2019-03-24T01:18:08.122Z,65.80
2019-03-24T01:20:37.345Z,66.40
2019-03-24T01:23:06.331Z,65.80
2019-03-24T01:25:35.258Z,66.10
2019-03-24T01:28:04.265Z,66.30
2019-03-24T01:30:33.315Z,66.50
2019-03-24T01:33:02.682Z,66.80
2019-03-24T01:35:31.540Z,66.90
2019-03-24T01:38:00.327Z,66.60
2019-03-24T01:40:29.148Z,67.30
2019-03-24T01:42:58.020Z,67.50
2019-03-24T01:45:26.998Z,67.30
2019-03-24T01:47:55.861Z,67.40
2019-03-24T01:50:24.754Z,68.10
2019-03-24T01:52:53.550Z,68.10
2019-03-24T01:55:22.692Z,67.40
2019-03-24T01:57:52.649Z,68.60
2019-03-24T02:00:21.474Z,67.90
2019-03-24T02:02:50.733Z,68.60
2019-03-24T02:05:19.600Z,68.10
2019-03-24T02:07:48.487Z,67.50
2019-03-24T02:10:17.451Z,68.10
2019-03-24T02:12:46.346Z,68.60
2019-03-24T02:15:15.134Z,68.80
2019-03-24T02:17:43.973Z,69.30
2019-03-24T02:20:14.709Z,69.00
2019-03-24T02:22:43.579Z,69.70
2019-03-24T02:25:12.699Z,71.10
2019-03-24T02:27:41.935Z,70.80
2019-03-24T02:30:12.895Z,71.00
2019-03-24T02:32:41.968Z,71.20
2019-03-24T02:35:11.706Z,71.60
2019-03-24T02:37:40.803Z,72.40
2019-03-24T02:40:19.935Z,72.50
2019-03-24T02:42:47.953Z,72.30
2019-03-24T02:45:17.158Z,72.30
2019-03-24T02:47:46.112Z,71.50
2019-03-24T02:50:15.319Z,72.20
2019-03-24T02:52:44.728Z,71.30
2019-03-24T02:55:13.605Z,70.80
2019-03-24T02:57:42.744Z,71.10
2019-03-24T03:00:12.109Z,71.00
2019-03-24T03:02:40.974Z,71.00
2019-03-24T03:05:10.720Z,70.80
2019-03-24T03:07:39.848Z,71.30
2019-03-24T03:10:09.166Z,71.90
2019-03-24T03:12:37.987Z,70.40
2019-03-24T03:15:07.712Z,71.60
2019-03-24T03:17:36.485Z,71.10
2019-03-24T03:20:06.217Z,71.70
2019-03-24T03:22:35.471Z,72.60
2019-03-24T03:25:05.109Z,72.20
2019-03-24T03:27:34.025Z,72.20
2019-03-24T03:30:03.119Z,72.70
2019-03-24T03:32:32.075Z,71.80
2019-03-24T03:35:01.049Z,71.40
2019-03-24T03:37:29.881Z,71.50
2019-03-24T03:39:58.780Z,71.70
2019-03-24T03:42:27.942Z,71.60
2019-03-24T03:44:56.905Z,71.50
2019-03-24T03:47:25.718Z,71.50
2019-03-24T03:49:54.890Z,70.90
2019-03-24T03:52:23.677Z,71.50
2019-03-24T03:54:52.458Z,70.50
2019-03-24T03:57:21.254Z,70.60
2019-03-24T03:59:50.180Z,70.70
2019-03-24T04:02:20.614Z,71.40
2019-03-24T04:04:49.629Z,72.10
2019-03-24T04:07:18.427Z,71.20
2019-03-24T04:09:47.302Z,71.00
2019-03-24T04:12:16.466Z,72.10
2019-03-24T04:14:45.302Z,70.50
2019-03-24T04:17:14.565Z,70.40
2019-03-24T04:19:43.770Z,70.40
2019-03-24T04:22:12.624Z,70.90
2019-03-24T04:24:41.410Z,70.90
2019-03-24T04:27:10.341Z,69.50
2019-03-24T04:29:39.497Z,69.00
2019-03-24T04:32:08.364Z,69.60
2019-03-24T04:34:37.500Z,70.00
2019-03-24T04:37:06.312Z,70.40
2019-03-24T04:39:35.591Z,70.00
2019-03-24T04:42:04.416Z,70.60
2019-03-24T04:44:34.093Z,70.00
2019-03-24T04:47:02.903Z,72.10
2019-03-24T04:49:33.397Z,70.20
2019-03-24T04:52:02.546Z,70.80
2019-03-24T04:54:31.776Z,70.80
2019-03-24T04:57:00.928Z,71.60
2019-03-24T04:59:30.730Z,71.10
2019-03-24T05:01:59.531Z,70.70
2019-03-24T05:04:28.423Z,70.90
2019-03-24T05:06:57.428Z,70.70
2019-03-24T05:09:26.801Z,70.40
2019-03-24T05:11:55.620Z,70.40
2019-03-24T05:14:24.425Z,71.30
2019-03-24T05:16:53.628Z,71.00
2019-03-24T05:19:22.521Z,70.60
2019-03-24T05:21:51.465Z,71.20
2019-03-24T05:24:20.256Z,71.00
2019-03-24T05:26:49.075Z,71.30
2019-03-24T05:29:17.844Z,71.80
2019-03-24T05:31:46.638Z,72.20
2019-03-24T05:34:15.924Z,72.90
2019-03-24T05:36:44.801Z,73.00
2019-03-24T05:39:13.614Z,72.60
2019-03-24T05:41:44.158Z,71.80
2019-03-24T05:44:13.389Z,72.00
2019-03-24T05:46:42.150Z,71.00
2019-03-24T05:49:10.966Z,71.90
2019-03-24T05:51:39.869Z,69.70
2019-03-24T05:54:08.795Z,70.30
2019-03-24T05:56:37.743Z,70.20
2019-03-24T05:59:06.463Z,70.40
2019-03-24T06:01:35.310Z,71.50
2019-03-24T06:04:04.252Z,71.60
2019-03-24T06:06:33.093Z,72.20
2019-03-24T06:09:02.156Z,72.60
2019-03-24T06:11:33.214Z,72.00
2019-03-24T06:14:02.017Z,71.60
2019-03-24T06:16:30.838Z,70.80
2019-03-24T06:18:59.710Z,71.10
2019-03-24T06:21:28.651Z,70.10
2019-03-24T06:23:57.451Z,69.50
2019-03-24T06:26:26.362Z,68.80
2019-03-24T06:28:55.305Z,68.30
2019-03-24T06:31:24.138Z,69.40
2019-03-24T06:33:52.983Z,67.90
2019-03-24T06:36:21.900Z,67.90
2019-03-24T06:38:50.936Z,67.90
2019-03-24T06:41:20.641Z,67.70
2019-03-24T06:43:49.461Z,68.00
2019-03-24T06:46:18.246Z,67.30
2019-03-24T06:48:47.128Z,66.10
2019-03-24T06:51:16.131Z,65.50
2019-03-24T06:53:44.910Z,65.30
2019-03-24T06:56:13.746Z,65.70
2019-03-24T06:58:42.565Z,66.50
2019-03-24T07:01:11.931Z,65.30
2019-03-24T07:03:41.032Z,65.00
2019-03-24T07:06:09.812Z,64.80
2019-03-24T07:08:39.050Z,65.10
2019-03-24T07:11:13.353Z,65.60
2019-03-24T07:13:39.258Z,65.40
2019-03-24T07:16:08.196Z,64.00
2019-03-24T07:18:36.972Z,64.40
2019-03-24T07:21:05.886Z,64.10
2019-03-24T07:23:34.810Z,63.80
2019-03-24T07:26:03.770Z,63.20
2019-03-24T07:28:32.644Z,61.70
2019-03-24T07:31:01.985Z,62.40
2019-03-24T07:33:30.866Z,61.80
2019-03-24T07:35:59.695Z,61.40
2019-03-24T07:38:28.865Z,61.20
2019-03-24T07:40:58.441Z,60.90
2019-03-24T07:43:27.670Z,61.90
2019-03-24T07:45:56.488Z,61.20
2019-03-24T07:48:25.274Z,61.50
2019-03-24T07:50:54.094Z,61.00
2019-03-24T07:53:22.857Z,60.50
2019-03-24T07:55:51.671Z,60.60
2019-03-24T07:58:20.768Z,60.90
2019-03-24T08:00:49.698Z,59.50
2019-03-24T08:03:19.107Z,60.00
2019-03-24T08:05:48.016Z,59.90
2019-03-24T08:08:17.497Z,60.30
2019-03-24T08:10:46.619Z,61.00
2019-03-24T08:13:15.552Z,61.40
2019-03-24T08:15:44.328Z,59.70
2019-03-24T08:18:13.186Z,59.40
2019-03-24T08:20:43.273Z,59.20
2019-03-24T08:23:12.376Z,60.10
2019-03-24T08:25:41.200Z,58.30
2019-03-24T08:28:10.418Z,57.40
2019-03-24T08:30:39.458Z,56.70
2019-03-24T08:33:08.302Z,57.40
2019-03-24T08:35:37.233Z,57.80
2019-03-24T08:38:06.151Z,55.70
2019-03-24T08:40:34.895Z,56.00
2019-03-24T08:43:04.051Z,56.10
2019-03-24T08:45:32.831Z,55.40
2019-03-24T08:48:01.665Z,54.50
2019-03-24T08:50:30.423Z,55.10
2019-03-24T08:53:02.063Z,54.30
2019-03-24T08:55:32.081Z,54.60
2019-03-24T08:58:00.894Z,54.80
2019-03-24T09:00:30.772Z,54.50
2019-03-24T09:03:00.080Z,54.30
2019-03-24T09:05:30.750Z,53.80
2019-03-24T09:07:59.598Z,53.50
2019-03-24T09:10:29.861Z,53.50
2019-03-24T09:12:58.841Z,53.20
2019-03-24T09:15:27.714Z,52.30
2019-03-24T09:17:56.667Z,52.40
2019-03-24T09:20:25.455Z,52.80
2019-03-24T09:22:54.261Z,53.40
2019-03-24T09:25:23.192Z,52.90
2019-03-24T09:27:52.166Z,51.70
2019-03-24T09:30:33.234Z,52.00
2019-03-24T09:33:02.417Z,51.00
2019-03-24T09:35:31.274Z,51.30
2019-03-24T09:38:00.494Z,51.80
2019-03-24T09:40:30.986Z,51.30
2019-03-24T09:43:00.246Z,51.10
2019-03-24T09:45:30.602Z,50.80
2019-03-24T09:47:59.964Z,48.80
2019-03-24T09:50:28.834Z,49.20
2019-03-24T09:52:57.749Z,49.10
2019-03-24T09:55:26.541Z,48.10
2019-03-24T09:57:55.927Z,48.30
2019-03-24T10:00:24.665Z,47.90
2019-03-24T10:02:54.108Z,47.00
2019-03-24T10:05:23.628Z,46.90
2019-03-24T10:07:52.720Z,47.50
2019-03-24T10:10:21.598Z,47.40
2019-03-24T10:12:51.734Z,47.00
2019-03-24T10:15:22.368Z,45.50
2019-03-24T10:17:51.199Z,47.10
2019-03-24T10:20:20.055Z,47.40
2019-03-24T10:22:48.929Z,47.50
2019-03-24T10:25:17.944Z,47.30
2019-03-24T10:27:47.811Z,47.30
2019-03-24T10:30:16.666Z,47.40
2019-03-24T10:32:45.446Z,47.40
2019-03-24T10:35:14.616Z,47.50
2019-03-24T10:37:43.748Z,47.20
2019-03-24T10:40:12.966Z,47.70
2019-03-24T10:42:41.762Z,47.30
2019-03-24T10:45:10.772Z,47.00
2019-03-24T10:47:39.755Z,47.00
2019-03-24T10:50:09.447Z,45.90
2019-03-24T10:52:38.408Z,46.40
2019-03-24T10:55:08.768Z,44.70
2019-03-24T10:57:37.943Z,45.50
2019-03-24T11:00:08.780Z,44.80
2019-03-24T11:02:37.938Z,45.30
2019-03-24T11:05:07.032Z,45.70
2019-03-24T11:07:35.892Z,45.50
2019-03-24T11:10:06.015Z,44.70
2019-03-24T11:12:34.852Z,44.60
2019-03-24T11:15:04.623Z,43.50
2019-03-24T11:17:33.855Z,43.40
2019-03-24T11:20:03.047Z,43.50
2019-03-24T11:22:32.175Z,43.50
2019-03-24T11:25:02.197Z,45.30
2019-03-24T11:27:31.578Z,44.90
2019-03-24T11:30:00.537Z,45.60
2019-03-24T11:32:29.394Z,45.00
2019-03-24T11:34:58.210Z,45.10
2019-03-24T11:37:27.317Z,44.00
2019-03-24T11:39:56.161Z,44.20
2019-03-24T11:42:25.331Z,44.40
2019-03-24T11:44:54.218Z,44.60
2019-03-24T11:47:26.781Z,43.40
2019-03-24T11:49:54.613Z,43.20
2019-03-24T11:52:23.441Z,43.30
2019-03-24T11:54:52.581Z,43.10
2019-03-24T11:57:21.477Z,42.70
2019-03-24T11:59:50.365Z,42.60
2019-03-24T12:02:19.310Z,42.70
2019-03-24T12:04:48.133Z,43.10
2019-03-24T12:07:16.923Z,43.10
2019-03-24T12:09:46.277Z,41.60
2019-03-24T12:12:15.525Z,41.80
2019-03-24T12:14:44.382Z,41.60
2019-03-24T12:17:13.247Z,41.30
2019-03-24T12:19:42.410Z,38.40
2019-03-24T12:22:20.219Z,39.00
2019-03-24T12:24:50.350Z,38.90
2019-03-24T12:27:19.199Z,38.80
2019-03-24T12:29:48.085Z,41.90
2019-03-24T12:32:17.595Z,42.10
2019-03-24T12:34:46.481Z,41.40
2019-03-24T12:37:15.293Z,40.00
2019-03-24T12:39:44.410Z,38.90
2019-03-24T12:42:13.301Z,39.90
2019-03-24T12:44:42.233Z,40.50
2019-03-24T12:47:11.059Z,40.90
2019-03-24T12:49:39.870Z,39.70
2019-03-24T12:52:12.877Z,40.00
2019-03-24T12:54:41.168Z,38.40
2019-03-24T12:57:10.232Z,35.70
2019-03-24T12:59:39.051Z,36.00
2019-03-24T13:02:07.828Z,36.60
2019-03-24T13:04:37.823Z,36.90
2019-03-24T13:07:06.607Z,38.50
2019-03-24T13:09:35.517Z,36.20
2019-03-24T13:12:04.304Z,37.20
2019-03-24T13:14:33.122Z,37.10
2019-03-24T13:17:01.998Z,37.70
2019-03-24T13:22:00.850Z,36.60
2019-03-24T13:24:29.739Z,37.50
2019-03-24T13:26:58.603Z,37.60
2019-03-24T13:29:27.549Z,36.80
2019-03-24T13:31:56.362Z,36.60
2019-03-24T13:34:25.474Z,37.00
2019-03-24T13:36:54.639Z,37.30
2019-03-24T13:39:23.551Z,36.90
2019-03-24T13:41:52.379Z,36.80
2019-03-24T13:44:21.246Z,36.50
2019-03-24T13:46:50.066Z,35.00
2019-03-24T13:49:19.547Z,34.20
2019-03-24T13:51:48.319Z,34.90
2019-03-24T13:54:17.440Z,32.70
2019-03-24T13:56:46.520Z,31.80
2019-03-24T13:59:15.302Z,31.30
2019-03-24T14:01:44.321Z,32.50
2019-03-24T14:04:13.110Z,32.40
2019-03-24T14:06:41.950Z,32.30
2019-03-24T14:09:11.299Z,32.90
2019-03-24T14:11:40.211Z,33.20
2019-03-24T14:14:09.035Z,32.90
2019-03-24T14:16:37.883Z,33.80
2019-03-24T14:19:06.785Z,33.00
2019-03-24T14:21:35.651Z,32.50
2019-03-24T14:24:04.425Z,31.30
2019-03-24T14:26:33.475Z,31.10
2019-03-24T14:29:02.261Z,32.00
2019-03-24T14:31:32.831Z,32.40
2019-03-24T14:34:01.948Z,33.10
2019-03-24T14:36:31.085Z,33.80
2019-03-24T14:38:59.904Z,33.40
2019-03-24T14:41:28.765Z,33.10
2019-03-24T14:43:57.569Z,34.40
2019-03-24T14:46:26.736Z,34.80
2019-03-24T14:48:55.627Z,36.40
2019-03-24T14:51:26.360Z,36.70
2019-03-24T14:53:55.173Z,37.70
2019-03-24T14:56:24.343Z,37.60
2019-03-24T14:58:53.700Z,37.20
2019-03-24T15:01:22.854Z,37.00
2019-03-24T15:03:51.713Z,35.60
2019-03-24T15:06:20.754Z,34.90
2019-03-24T15:08:49.666Z,34.20
2019-03-24T15:11:19.694Z,34.90
2019-03-24T15:13:48.475Z,35.70
2019-03-24T15:16:17.325Z,36.30
2019-03-24T15:18:47.461Z,37.00
2019-03-24T15:21:16.322Z,37.50
2019-03-24T15:23:45.096Z,37.20
2019-03-24T15:26:13.941Z,38.00
2019-03-24T15:28:42.749Z,37.40
2019-03-24T15:31:11.725Z,35.40
2019-03-24T15:33:40.971Z,36.20
2019-03-24T15:36:13.214Z,35.80
2019-03-24T15:38:42.760Z,36.30
2019-03-24T15:41:11.820Z,35.90
2019-03-24T15:43:41.207Z,35.50
2019-03-24T15:46:10.285Z,36.00
2019-03-24T15:48:39.131Z,37.30
2019-03-24T15:51:16.325Z,38.40
2019-03-24T15:53:38.793Z,38.70
2019-03-24T15:56:07.661Z,39.20
2019-03-24T15:58:36.492Z,38.80
2019-03-24T16:01:05.484Z,37.60
2019-03-24T16:03:34.507Z,36.70
2019-03-24T16:06:03.639Z,35.90
2019-03-24T16:08:32.966Z,35.00
2019-03-24T16:11:02.371Z,36.10
2019-03-24T16:13:31.390Z,36.50
2019-03-24T16:16:00.504Z,37.60
2019-03-24T16:18:30.928Z,36.00
2019-03-24T16:20:59.919Z,35.80
2019-03-24T16:23:28.758Z,36.40
2019-03-24T16:25:57.656Z,37.70
2019-03-24T16:28:26.597Z,38.20
2019-03-24T16:30:56.013Z,38.50
2019-03-24T16:33:25.916Z,39.00
2019-03-24T16:35:54.859Z,39.50
2019-03-24T16:38:23.750Z,39.80
2019-03-24T16:40:53.119Z,39.80
2019-03-24T16:43:22.321Z,40.70
2019-03-24T16:45:51.519Z,41.30
2019-03-24T16:48:20.273Z,41.50
2019-03-24T16:50:49.085Z,41.30
2019-03-24T16:53:17.998Z,41.60
2019-03-24T16:55:46.797Z,42.20
2019-03-24T16:58:15.976Z,42.40
2019-03-24T17:00:44.787Z,43.00
2019-03-24T17:03:15.499Z,43.00
2019-03-24T17:05:44.339Z,44.90
2019-03-24T17:08:13.141Z,45.10
2019-03-24T17:10:44.857Z,45.50
2019-03-24T17:13:13.949Z,46.30
2019-03-24T17:15:44.068Z,47.10
2019-03-24T17:18:13.211Z,47.40
2019-03-24T17:20:42.237Z,48.60
2019-03-24T17:23:12.332Z,48.60
2019-03-24T17:25:41.264Z,49.10
2019-03-24T17:28:10.130Z,49.50
2019-03-24T17:30:39.939Z,50.10
2019-03-24T17:33:08.789Z,50.50
2019-03-24T17:35:41.739Z,50.60
2019-03-24T17:38:13.642Z,51.20
2019-03-24T17:40:44.543Z,50.60
2019-03-24T17:43:13.514Z,51.30
2019-03-24T17:45:42.589Z,51.80
2019-03-24T17:48:11.982Z,51.20
2019-03-24T17:50:40.811Z,51.70
2019-03-24T17:53:10.204Z,52.10
2019-03-24T17:55:39.210Z,52.20
2019-03-24T17:58:07.999Z,52.40
2019-03-24T18:00:43.222Z,52.50
2019-03-24T18:03:12.524Z,52.70
2019-03-24T18:05:41.779Z,52.90
2019-03-24T18:08:10.592Z,52.80
2019-03-24T18:10:39.739Z,53.10
2019-03-24T18:13:08.684Z,53.00
2019-03-24T18:15:37.652Z,53.20
2019-03-24T18:18:06.873Z,53.00
2019-03-24T18:20:36.441Z,53.20
2019-03-24T18:23:05.681Z,53.00
2019-03-24T18:25:39.185Z,53.70
2019-03-24T18:28:08.465Z,53.10
2019-03-24T18:30:37.766Z,53.00
2019-03-24T18:33:07.058Z,53.20
2019-03-24T18:35:36.266Z,53.20
2019-03-24T18:38:05.096Z,53.80
2019-03-24T18:40:33.981Z,53.20
2019-03-24T18:43:02.768Z,53.30
2019-03-24T18:45:33.061Z,53.30
2019-03-24T18:48:01.879Z,53.40
2019-03-24T18:50:31.222Z,53.20
2019-03-24T18:53:00.512Z,52.90
2019-03-24T18:55:29.658Z,53.00
2019-03-24T18:57:58.541Z,52.70
2019-03-24T19:00:27.982Z,52.90
2019-03-24T19:02:56.787Z,52.90
2019-03-24T19:05:26.045Z,52.70
2019-03-24T19:07:54.866Z,52.80
2019-03-24T19:10:24.157Z,52.30
2019-03-24T19:12:53.410Z,52.60
2019-03-24T19:15:22.584Z,52.50
2019-03-24T19:17:51.594Z,52.90
2019-03-24T19:20:20.474Z,52.70
2019-03-24T19:22:49.287Z,52.50
2019-03-24T19:25:18.341Z,52.70
2019-03-24T19:27:47.210Z,52.70
2019-03-24T19:30:16.341Z,52.80
2019-03-24T19:32:45.574Z,53.10
2019-03-24T19:35:14.490Z,53.10
2019-03-24T19:37:44.892Z,53.20
2019-03-24T19:40:26.095Z,53.20
2019-03-24T19:42:55.215Z,53.20
2019-03-24T19:45:24.239Z,53.80
2019-03-24T19:47:53.203Z,53.60
2019-03-24T19:50:22.142Z,53.80
2019-03-24T19:52:51.140Z,53.70
2019-03-24T19:55:20.172Z,54.10
2019-03-24T19:57:49.135Z,53.90
2019-03-24T20:00:18.024Z,53.90
2019-03-24T20:02:47.047Z,54.30
2019-03-24T20:05:15.971Z,54.70
2019-03-24T20:07:48.254Z,54.80
2019-03-24T20:10:17.320Z,54.90
2019-03-24T20:12:46.950Z,54.90
2019-03-24T20:15:16.924Z,54.90
2019-03-24T20:17:45.683Z,54.90
2019-03-24T20:20:14.629Z,54.80
2019-03-24T20:22:43.456Z,54.30
2019-03-24T20:25:12.358Z,54.30
2019-03-24T20:27:41.839Z,54.20
2019-03-24T20:30:11.381Z,54.30
2019-03-24T20:32:40.450Z,55.10
2019-03-24T20:35:11.309Z,54.40
2019-03-24T20:37:40.472Z,54.50
2019-03-24T20:40:09.871Z,54.20
2019-03-24T20:42:38.771Z,54.20
2019-03-24T20:45:07.914Z,54.00
2019-03-24T20:47:36.883Z,53.90
2019-03-24T20:50:06.701Z,53.30
2019-03-24T20:52:35.698Z,53.20
2019-03-24T20:55:05.261Z,53.60
2019-03-24T20:57:34.374Z,53.70
2019-03-24T21:00:05.615Z,53.40
2019-03-24T21:02:36.317Z,53.40
2019-03-24T21:05:05.960Z,53.40
2019-03-24T21:07:35.736Z,53.30
2019-03-24T21:10:05.626Z,53.90
2019-03-24T21:12:34.546Z,53.70
2019-03-24T21:15:03.901Z,53.90
2019-03-24T21:17:34.106Z,54.10
2019-03-24T21:20:03.171Z,54.00
2019-03-24T21:22:31.992Z,54.50
2019-03-24T21:25:00.827Z,54.70
2019-03-24T21:27:30.201Z,54.30
2019-03-24T21:30:01.705Z,54.90
2019-03-24T21:32:31.935Z,54.40
2019-03-24T21:35:00.748Z,54.50
2019-03-24T21:37:29.680Z,54.60
2019-03-24T21:39:58.697Z,54.50
2019-03-24T21:42:27.463Z,54.80
2019-03-24T21:44:56.417Z,54.60
2019-03-24T21:49:53.786Z,54.00
2019-03-24T21:52:22.981Z,54.50
2019-03-24T21:54:51.880Z,54.50
2019-03-24T21:57:34.289Z,53.90
2019-03-24T22:00:07.571Z,54.30
2019-03-24T22:02:37.057Z,54.70
2019-03-24T22:05:06.004Z,55.00
2019-03-24T22:07:34.998Z,55.30
2019-03-24T22:10:04.723Z,55.70
2019-03-24T22:12:33.986Z,55.80
2019-03-24T22:15:07.024Z,55.80
2019-03-24T22:17:35.991Z,56.40
2019-03-24T22:20:05.258Z,56.10
2019-03-24T22:22:34.548Z,56.40
2019-03-24T22:25:03.549Z,56.90
2019-03-24T22:27:32.657Z,57.70
2019-03-24T22:30:01.602Z,58.20
2019-03-24T22:32:31.646Z,58.50
2019-03-24T22:35:00.450Z,58.50
2019-03-24T22:37:29.640Z,58.50
2019-03-24T22:39:58.450Z,58.60
2019-03-24T22:42:27.831Z,58.70
2019-03-24T22:44:56.626Z,58.90
2019-03-24T22:47:25.436Z,59.00
2019-03-24T22:49:55.347Z,58.60
2019-03-24T22:52:24.326Z,59.20
2019-03-24T22:54:53.508Z,59.00
2019-03-24T22:57:22.415Z,59.50
2019-03-24T22:59:51.363Z,59.50
2019-03-24T23:02:20.185Z,59.30
2019-03-24T23:04:48.985Z,60.10
2019-03-24T23:07:17.847Z,58.90
2019-03-24T23:09:47.450Z,58.90
2019-03-24T23:12:16.274Z,59.40
2019-03-24T23:14:45.877Z,59.10
2019-03-24T23:17:14.958Z,58.90
2019-03-24T23:19:43.763Z,57.70
2019-03-24T23:22:12.636Z,58.30
2019-03-24T23:24:43.482Z,58.10
2019-03-24T23:27:12.314Z,57.20
2019-03-24T23:29:41.112Z,56.80
2019-03-24T23:32:10.280Z,57.20
2019-03-24T23:34:39.603Z,56.40
2019-03-24T23:37:08.857Z,56.90
2019-03-24T23:39:37.975Z,56.30
2019-03-24T23:42:06.940Z,56.70
2019-03-24T23:44:36.876Z,56.40
2019-03-24T23:47:05.801Z,56.50
2019-03-24T23:49:34.722Z,56.40
2019-03-24T23:52:03.900Z,56.20
2019-03-24T23:54:32.781Z,55.70
2019-03-24T23:57:01.691Z,56.60
2019-03-24T23:59:30.541Z,55.90
